Time;durP1;ratioP1;P1;durP2;ratioP2;P2;SDS_P1;SDS_P2;PMS_P1;PMS_P2;Temp;Humidity;BMP_temperature;BMP_pressure;BME280_temperature;BME280_humidity;BME280_pressure;Samples;Min_cycle;Max_cycle;Signal;HPM_P1;HPM_P2
2022/01/24 00:02:20;;;;;;;;;;;;;;;7.64;62.52;102151.16;5038039;28;19928;-79
2022/01/24 00:04:50;;;;;;;;;;;;;;;7.67;63.13;102150.63;5037750;28;20301;-81
2022/01/24 00:07:20;;;;;;;;;;;;;;;7.65;63.06;102152.81;5030997;28;19922;-81
2022/01/24 00:09:48;;;;;;;;;;;;;;;7.70;63.50;102157.59;5018534;28;19929;-80
2022/01/24 00:12:19;;;;;;;;;;;;;;;7.65;62.79;102154.75;5018289;28;20374;-80
2022/01/24 00:17:37;;;;;;;;;;;;;;;7.69;62.70;102161.47;5017025;28;19928;-80
2022/01/24 00:28:19;;;;;;;;;;;;;;;7.71;63.53;102148.19;5000699;28;19922;-81
2022/01/24 00:30:46;;;;;;;;;;;;;;;7.71;63.04;102149.03;5017196;28;19921;-80
2022/01/24 00:33:15;;;;;;;;;;;;;;;7.68;62.78;102146.75;5018467;28;19922;-80
2022/01/24 00:35:42;;;;;;;;;;;;;;;7.66;63.19;102148.09;5033989;28;19921;-80
2022/01/24 00:38:09;;;;;;;;;;;;;;;7.76;63.52;102139.94;5034238;28;19921;-80
2022/01/24 00:40:39;;;;;;;;;;;;;;;7.84;62.86;102152.53;5017689;28;19944;-80
2022/01/24 00:43:17;;;;;;;;;;;;;;;7.88;62.78;102150.94;5017619;28;19929;-79
2022/01/24 00:45:56;;;;;;;;;;;;;;;7.92;63.17;102154.88;5033531;28;19921;-81
2022/01/24 00:48:36;;;;;;;;;;;;;;;8.00;63.13;102154.47;5037519;28;19921;-81
2022/01/24 00:54:01;;;;;;;;;;;;;;;8.04;62.37;102154.75;5026018;28;19920;-81
2022/01/24 00:56:28;;;;;;;;;;;;;;;8.07;63.25;102154.25;5034032;28;20401;-80
2022/01/24 00:58:55;;;;;;;;;;;;;;;8.08;63.45;102156.78;5016393;28;19932;-81
2022/01/24 01:01:22;;;;;;;;;;;;;;;8.07;63.69;102160.66;5017539;28;19921;-79
2022/01/24 01:03:51;;;;;;;;;;;;;;;8.04;63.77;102160.31;5033229;28;19922;-80
2022/01/24 01:06:18;;;;;;;;;;;;;;;8.07;65.05;102154.25;5034497;28;20365;-80
2022/01/24 01:19:44;;;;;;;;;;;;;;;8.15;63.89;102156.59;5036612;28;19921;-80
2022/01/24 01:22:11;;;;;;;;;;;;;;;8.12;64.43;102154.31;5035594;28;19943;-79
2022/01/24 01:24:44;;;;;;;;;;;;;;;8.06;64.21;102150.66;5027392;28;19928;-78
2022/01/24 01:27:15;;;;;;;;;;;;;;;8.04;64.51;102151.97;5036462;28;19928;-78
2022/01/24 01:29:52;;;;;;;;;;;;;;;8.06;65.15;102153.44;5036925;28;19928;-79
2022/01/24 01:32:32;;;;;;;;;;;;;;;8.09;64.66;102157.63;5036299;28;19921;-79
2022/01/24 01:35:16;;;;;;;;;;;;;;;8.10;64.56;102154.56;5036390;28;19921;-79
2022/01/24 01:38:02;;;;;;;;;;;;;;;8.09;65.10;102157.63;5035890;28;19944;-79
2022/01/24 01:54:26;;;;;;;;;;;;;;;8.17;63.62;102143.31;5019747;28;19921;-79
2022/01/24 01:56:53;;;;;;;;;;;;;;;8.19;64.74;102145.81;5035940;28;19921;-79
2022/01/24 01:59:20;;;;;;;;;;;;;;;8.17;64.44;102137.75;5024906;28;19921;-80
2022/01/24 02:01:47;;;;;;;;;;;;;;;8.15;63.40;102134.41;5025343;28;19921;-79
2022/01/24 02:04:15;;;;;;;;;;;;;;;8.16;63.17;102136.06;5016162;28;19944;-79
2022/01/24 02:06:43;;;;;;;;;;;;;;;8.17;63.68;102137.75;5023542;28;19921;-77
2022/01/24 02:09:16;;;;;;;;;;;;;;;8.04;62.70;102141.75;5024418;28;20382;-78
2022/01/24 02:11:43;;;;;;;;;;;;;;;8.00;63.60;102148.91;5016946;28;19921;-78
2022/01/24 02:14:17;;;;;;;;;;;;;;;8.00;64.67;102135.03;5027776;28;19921;-78
2022/01/24 02:16:49;;;;;;;;;;;;;;;8.06;63.35;102142.34;5020337;28;19922;-78
2022/01/24 02:19:33;;;;;;;;;;;;;;;8.07;63.32;102132.91;5016139;28;20460;-79
2022/01/24 02:22:40;;;;;;;;;;;;;;;8.04;63.73;102127.00;5030888;28;19928;-78
2022/01/24 02:25:21;;;;;;;;;;;;;;;8.07;63.94;102123.75;5035768;28;19928;-79
2022/01/24 02:27:54;;;;;;;;;;;;;;;8.02;64.00;102123.66;5035542;28;19929;-79
2022/01/24 02:30:39;;;;;;;;;;;;;;;8.01;63.57;102110.88;5023386;28;19921;-79
2022/01/24 02:33:06;;;;;;;;;;;;;;;7.99;64.07;102107.53;5025946;28;19932;-79
2022/01/24 02:35:33;;;;;;;;;;;;;;;7.99;64.29;102108.34;5030332;28;19922;-79
2022/01/24 02:38:11;;;;;;;;;;;;;;;8.00;64.41;102101.72;5014830;28;19929;-79
2022/01/24 02:40:38;;;;;;;;;;;;;;;7.99;64.30;102107.53;5017810;28;19921;-77
2022/01/24 02:48:22;;;;;;;;;;;;;;;8.06;64.50;102094.28;5026118;28;19921;-79
2022/01/24 02:48:49;;;;;;;;;;;;;;;7.94;64.80;102094.44;5035467;28;19921;-79
2022/01/24 02:51:45;;;;;;;;;;;;;;;7.79;63.74;102088.66;5020279;28;19924;-79
2022/01/24 02:54:21;;;;;;;;;;;;;;;7.98;65.01;102086.41;5035578;28;19921;-79
2022/01/24 02:56:53;;;;;;;;;;;;;;;7.99;63.35;102085.34;5030996;28;19932;-78
2022/01/24 02:59:21;;;;;;;;;;;;;;;8.06;63.88;102083.19;5015954;28;20397;-78
2022/01/24 03:01:48;;;;;;;;;;;;;;;8.05;64.19;102079.59;5018935;28;19928;-79
2022/01/24 03:04:15;;;;;;;;;;;;;;;8.09;64.34;102074.38;5030157;28;19921;-79
2022/01/24 03:06:43;;;;;;;;;;;;;;;8.04;64.17;102080.69;5016525;28;19929;-78
2022/01/24 03:09:10;;;;;;;;;;;;;;;8.04;64.45;102077.06;5015857;28;19921;-78
2022/01/24 03:14:20;;;;;;;;;;;;;;;7.87;63.41;102074.34;5031205;28;19929;-78
2022/01/24 03:16:48;;;;;;;;;;;;;;;7.87;62.69;102068.78;5015965;28;19925;-79
2022/01/24 03:19:15;;;;;;;;;;;;;;;7.86;64.35;102067.97;5016307;28;19921;-78
2022/01/24 03:21:45;;;;;;;;;;;;;;;7.94;64.29;102075.00;5017936;28;20031;-79
2022/01/24 03:24:12;;;;;;;;;;;;;;;7.97;64.24;102081.97;5020420;28;19944;-80
2022/01/24 03:26:41;;;;;;;;;;;;;;;7.90;64.32;102076.63;5020920;28;19996;-78
2022/01/24 03:29:08;;;;;;;;;;;;;;;7.92;64.68;102079.97;5026615;28;20266;-80
2022/01/24 03:31:36;;;;;;;;;;;;;;;7.92;64.39;102082.75;5039804;28;20302;-79
2022/01/24 03:34:03;;;;;;;;;;;;;;;7.97;64.77;102088.34;5038865;28;19921;-80
2022/01/24 03:36:33;;;;;;;;;;;;;;;8.01;64.86;102081.19;5027782;28;19922;-79
2022/01/24 03:39:00;;;;;;;;;;;;;;;8.03;64.63;102087.31;5018618;28;19932;-80
2022/01/24 03:41:28;;;;;;;;;;;;;;;8.01;64.88;102083.97;5019683;28;19925;-80
2022/01/24 03:44:02;;;;;;;;;;;;;;;8.06;64.23;102083.19;5018127;28;19922;-80
2022/01/24 03:46:46;;;;;;;;;;;;;;;8.10;64.00;102087.97;5018477;28;19928;-80
2022/01/24 03:49:44;;;;;;;;;;;;;;;8.06;63.74;102081.28;5018477;28;19921;-80
2022/01/24 03:52:00;;;;;;;;;;;;;;;8.05;63.39;102078.75;5037242;28;19921;-80
2022/01/24 03:54:27;;;;;;;;;;;;;;;7.91;63.09;102078.28;5038279;28;19932;-80
2022/01/24 03:56:54;;;;;;;;;;;;;;;7.84;63.82;102072.94;5025384;28;19921;-80
2022/01/24 03:59:22;;;;;;;;;;;;;;;7.82;63.14;102074.28;5018381;28;20255;-81
2022/01/24 04:01:50;;;;;;;;;;;;;;;7.76;63.64;102075.31;5035448;28;19921;-79
2022/01/24 04:04:17;;;;;;;;;;;;;;;7.75;63.60;102073.63;5037719;28;19921;-79
2022/01/24 04:06:48;;;;;;;;;;;;;;;7.77;63.52;102076.97;5034999;28;19948;-80
2022/01/24 04:09:15;;;;;;;;;;;;;;;7.79;62.94;102074.78;5018530;28;19921;-81
2022/01/24 04:11:42;;;;;;;;;;;;;;;7.71;62.83;102076.09;5017733;28;19923;-81
2022/01/24 04:14:27;;;;;;;;;;;;;;;7.51;63.00;102076.59;5017886;28;19925;-80
2022/01/24 04:17:08;;;;;;;;;;;;;;;7.48;63.78;102071.59;5018119;28;19921;-80
2022/01/24 04:22:18;;;;;;;;;;;;;;;7.59;63.35;102072.56;5015118;28;19921;-79
2022/01/24 04:24:46;;;;;;;;;;;;;;;7.31;64.05;102079.94;5030019;28;19933;-79
2022/01/24 04:27:14;;;;;;;;;;;;;;;7.54;63.36;102070.56;5024712;28;19922;-80
2022/01/24 04:29:41;;;;;;;;;;;;;;;7.54;63.44;102076.13;5018150;28;19921;-80
2022/01/24 04:32:10;;;;;;;;;;;;;;;7.56;63.30;102071.16;5017588;28;19997;-79
2022/01/24 04:34:37;;;;;;;;;;;;;;;7.66;63.46;102057.41;5017807;28;19921;-81
2022/01/24 04:37:04;;;;;;;;;;;;;;;7.69;63.60;102059.69;5017520;28;19951;-82
2022/01/24 04:39:31;;;;;;;;;;;;;;;7.69;64.06;102065.25;5016921;28;19929;-80
2022/01/24 04:42:06;;;;;;;;;;;;;;;7.65;63.86;102072.38;5017461;28;19936;-80
2022/01/24 04:44:49;;;;;;;;;;;;;;;7.73;64.58;102068.34;5017356;28;19929;-80
2022/01/24 04:47:24;;;;;;;;;;;;;;;7.79;64.40;102063.69;5017249;28;19929;-79
2022/01/24 04:52:45;;;;;;;;;;;;;;;7.86;64.13;102070.75;5018801;28;19921;-79
2022/01/24 04:55:12;;;;;;;;;;;;;;;7.84;64.58;102061.84;5017484;28;20382;-80
2022/01/24 04:57:39;;;;;;;;;;;;;;;7.90;64.51;102071.06;5030235;28;19921;-79
2022/01/24 05:00:09;;;;;;;;;;;;;;;7.93;63.88;102074.16;5021275;28;19921;-79
2022/01/24 05:02:37;;;;;;;;;;;;;;;7.95;64.26;102085.00;5035130;28;19921;-79
2022/01/24 05:05:05;;;;;;;;;;;;;;;7.97;63.83;102076.44;5036832;28;19921;-80
2022/01/24 05:07:32;;;;;;;;;;;;;;;8.01;63.63;102077.59;5036837;28;19928;-80
2022/01/24 05:10:08;;;;;;;;;;;;;;;7.99;62.90;102075.06;5025998;28;19925;-78
2022/01/24 05:21:22;;;;;;;;;;;;;;;7.88;63.67;102076.03;5035276;28;19921;-78
2022/01/24 05:26:57;;;;;;;;;;;;;;;7.76;63.26;102081.69;5015344;28;19925;-79
2022/01/24 05:29:24;;;;;;;;;;;;;;;7.73;63.66;102071.94;5016025;28;19921;-80
2022/01/24 05:31:53;;;;;;;;;;;;;;;7.71;63.32;102070.53;5017426;28;19929;-80
2022/01/24 05:34:22;;;;;;;;;;;;;;;7.68;63.44;102071.88;5030781;28;19928;-81
2022/01/24 05:36:50;;;;;;;;;;;;;;;7.68;63.53;102082.13;5019324;28;19929;-80
2022/01/24 05:39:17;;;;;;;;;;;;;;;7.60;63.57;102080.66;5018004;28;19921;-79
2022/01/24 05:41:44;;;;;;;;;;;;;;;7.60;63.32;102077.88;5024073;28;19921;-80
2022/01/24 05:44:11;;;;;;;;;;;;;;;7.71;62.90;102079.69;5019309;28;19921;-79
2022/01/24 05:46:38;;;;;;;;;;;;;;;7.68;63.47;102080.19;5016792;28;20275;-79
2022/01/24 05:49:05;;;;;;;;;;;;;;;7.73;62.89;102066.41;5015991;28;20303;-81
2022/01/24 05:51:33;;;;;;;;;;;;;;;7.73;63.34;102066.41;5019641;28;19921;-81
2022/01/24 05:54:01;;;;;;;;;;;;;;;7.77;63.16;102066.75;5036464;28;19921;-79
2022/01/24 05:56:28;;;;;;;;;;;;;;;7.75;63.20;102085.56;5029405;28;20524;-81
2022/01/24 05:58:55;;;;;;;;;;;;;;;7.68;63.32;102080.19;5019876;28;19921;-81
2022/01/24 06:01:22;;;;;;;;;;;;;;;7.71;63.39;102087.19;5027291;28;19921;-80
2022/01/24 06:03:49;;;;;;;;;;;;;;;7.66;63.16;102084.31;5024328;28;19925;-79
2022/01/24 06:06:16;;;;;;;;;;;;;;;7.72;64.28;102088.84;5018135;28;19922;-80
2022/01/24 06:08:44;;;;;;;;;;;;;;;7.86;64.07;102089.31;5016931;28;20386;-79
2022/01/24 06:11:12;;;;;;;;;;;;;;;7.81;63.68;102080.91;5035919;28;19921;-81
2022/01/24 06:13:39;;;;;;;;;;;;;;;7.76;63.39;102080.84;5032391;28;19921;-80
2022/01/24 06:16:06;;;;;;;;;;;;;;;7.77;63.17;102072.28;5018627;28;19922;-80
2022/01/24 06:18:35;;;;;;;;;;;;;;;7.84;63.28;102077.66;5020699;28;19933;-80
2022/01/24 06:21:02;;;;;;;;;;;;;;;7.90;62.97;102077.44;5016497;28;20310;-81
2022/01/24 06:23:29;;;;;;;;;;;;;;;7.86;62.82;102084.59;5017857;28;19926;-79
2022/01/24 06:25:58;;;;;;;;;;;;;;;7.82;63.13;102083.44;5018116;28;19921;-80
2022/01/24 06:28:25;;;;;;;;;;;;;;;7.82;62.84;102090.94;5016965;28;19921;-81
2022/01/24 06:30:53;;;;;;;;;;;;;;;7.81;62.92;102083.69;5022852;28;19928;-80
2022/01/24 06:33:20;;;;;;;;;;;;;;;7.82;62.99;102075.13;5016279;28;20382;-80
2022/01/24 06:35:47;;;;;;;;;;;;;;;7.79;62.96;102078.41;5016383;28;19922;-79
2022/01/24 06:38:15;;;;;;;;;;;;;;;7.77;62.96;102076.97;5023676;28;20298;-79
2022/01/24 06:40:42;;;;;;;;;;;;;;;7.68;62.37;102082.13;5027297;28;19925;-80
2022/01/24 06:43:10;;;;;;;;;;;;;;;7.56;63.22;102079.47;5017445;28;19944;-79
2022/01/24 06:45:37;;;;;;;;;;;;;;;7.58;63.40;102077.28;5015545;28;19925;-80
2022/01/24 06:48:04;;;;;;;;;;;;;;;7.58;62.92;102085.59;5016739;28;19921;-79
2022/01/24 06:50:31;;;;;;;;;;;;;;;7.53;63.48;102082.75;5016239;28;19921;-79
2022/01/24 06:52:58;;;;;;;;;;;;;;;7.58;62.73;102082.84;5016383;28;19953;-81
2022/01/24 06:55:25;;;;;;;;;;;;;;;7.50;63.19;102083.25;5030046;28;19927;-79
2022/01/24 06:57:53;;;;;;;;;;;;;;;7.46;63.62;102082.94;5034309;28;19921;-81
2022/01/24 07:00:25;;;;;;;;;;;;;;;7.48;63.75;102086.28;5021430;28;20421;-82
2022/01/24 07:02:53;;;;;;;;;;;;;;;7.49;63.50;102087.94;5023161;28;19929;-82
2022/01/24 07:05:20;;;;;;;;;;;;;;;7.52;64.11;102092.16;5027045;28;19925;-82
2022/01/24 07:07:47;;;;;;;;;;;;;;;7.57;63.63;102094.16;5026420;28;19921;-82
2022/01/24 07:10:16;;;;;;;;;;;;;;;7.49;63.91;102098.19;5020467;28;19928;-82
2022/01/24 07:12:43;;;;;;;;;;;;;;;7.54;63.80;102106.63;5021339;28;19925;-82
2022/01/24 07:15:14;;;;;;;;;;;;;;;7.55;63.30;102099.13;5021782;28;19932;-82
2022/01/24 07:18:13;;;;;;;;;;;;;;;7.46;63.62;102105.09;5021299;28;19936;-81
2022/01/24 07:20:40;;;;;;;;;;;;;;;7.31;64.81;102102.94;5038483;28;19996;-82
2022/01/24 07:23:07;;;;;;;;;;;;;;;7.38;64.44;102104.69;5024759;28;19946;-81
2022/01/24 07:25:34;;;;;;;;;;;;;;;7.49;64.16;102109.28;5019689;28;19922;-81
2022/01/24 07:28:02;;;;;;;;;;;;;;;7.41;64.27;102107.81;5020458;28;19948;-81
2022/01/24 07:30:29;;;;;;;;;;;;;;;7.51;63.59;102107.94;5018654;28;19921;-80
2022/01/24 07:32:57;;;;;;;;;;;;;;;7.38;64.02;102113.00;5030769;28;19921;-79
2022/01/24 07:35:24;;;;;;;;;;;;;;;7.59;62.83;102114.16;5038260;28;19920;-80
2022/01/24 07:37:51;;;;;;;;;;;;;;;7.63;62.57;102116.19;5021171;28;19921;-80
2022/01/24 07:40:18;;;;;;;;;;;;;;;7.47;62.91;102119.78;5021889;28;19921;-79
2022/01/24 07:43:09;;;;;;;;;;;;;;;7.53;63.56;102121.56;5032290;28;19929;-79
2022/01/24 07:45:36;;;;;;;;;;;;;;;6.39;68.19;102128.94;5013810;28;19926;-79
2022/01/24 07:48:06;;;;;;;;;;;;;;;7.16;64.97;102138.72;5027378;28;19932;-80
2022/01/24 07:50:35;;;;;;;;;;;;;;;7.20;64.18;102144.56;5017405;28;19925;-80
2022/01/24 07:53:02;;;;;;;;;;;;;;;7.31;64.01;102140.91;5021960;28;20355;-79
2022/01/24 07:55:30;;;;;;;;;;;;;;;7.37;64.25;102141.81;5016857;28;19933;-81
2022/01/24 07:57:58;;;;;;;;;;;;;;;7.56;63.50;102146.03;5016892;28;19928;-81
2022/01/24 08:00:28;;;;;;;;;;;;;;;7.66;63.22;102146.16;5019209;28;19921;-79
2022/01/24 08:02:57;;;;;;;;;;;;;;;7.38;63.74;102147.09;5030604;28;19925;-80
2022/01/24 08:05:26;;;;;;;;;;;;;;;7.07;64.49;102141.03;5026540;28;20274;-79
2022/01/24 08:07:55;;;;;;;;;;;;;;;7.16;63.64;102138.72;5021333;28;19926;-80
2022/01/24 08:10:23;;;;;;;;;;;;;;;7.44;63.67;102139.72;5021591;28;19926;-81
2022/01/24 08:12:50;;;;;;;;;;;;;;;7.59;62.40;102147.44;5016813;28;19921;-80
2022/01/24 08:15:17;;;;;;;;;;;;;;;7.59;63.19;102139.97;5018247;28;20402;-79
2022/01/24 08:17:44;;;;;;;;;;;;;;;7.58;63.46;102143.84;5027045;28;19921;-79
2022/01/24 08:20:12;;;;;;;;;;;;;;;7.60;63.49;102143.56;5022023;28;19924;-80
2022/01/24 08:22:41;;;;;;;;;;;;;;;7.48;63.19;102141.72;5018134;28;19925;-79
2022/01/24 08:25:09;;;;;;;;;;;;;;;7.61;62.13;102148.03;5016917;28;19932;-78
2022/01/24 08:27:36;;;;;;;;;;;;;;;7.66;61.76;102143.38;5018171;28;19925;-79
2022/01/24 08:30:07;;;;;;;;;;;;;;;7.56;61.73;102148.81;5016740;28;19928;-79
2022/01/24 08:32:34;;;;;;;;;;;;;;;7.60;62.29;102143.56;5024415;28;19922;-79
2022/01/24 08:35:01;;;;;;;;;;;;;;;7.53;62.64;102132.66;5018638;28;20326;-79
2022/01/24 08:37:28;;;;;;;;;;;;;;;7.47;62.48;102136.44;5019204;28;19921;-79
2022/01/24 08:39:58;;;;;;;;;;;;;;;7.57;62.43;102139.38;5016751;28;19933;-79
2022/01/24 08:42:32;;;;;;;;;;;;;;;7.56;62.58;102140.47;5019204;28;19921;-80
2022/01/24 08:47:45;;;;;;;;;;;;;;;7.36;63.41;102142.91;5029701;28;19926;-79
2022/01/24 08:50:12;;;;;;;;;;;;;;;7.49;62.99;102140.63;5018828;28;19928;-79
2022/01/24 08:52:39;;;;;;;;;;;;;;;7.40;63.23;102142.16;5034476;28;19920;-78
2022/01/24 08:55:08;;;;;;;;;;;;;;;7.53;62.86;102133.47;5018066;28;20312;-79
2022/01/24 08:57:38;;;;;;;;;;;;;;;7.56;62.43;102131.28;5020600;28;19921;-80
2022/01/24 09:00:07;;;;;;;;;;;;;;;7.62;62.39;102136.69;5024157;28;19925;-79
2022/01/24 09:02:35;;;;;;;;;;;;;;;7.72;62.33;102142.38;5019810;28;19921;-80
2022/01/24 09:05:02;;;;;;;;;;;;;;;7.70;62.02;102141.78;5022190;28;20366;-79
2022/01/24 09:07:30;;;;;;;;;;;;;;;7.80;62.02;102143.06;5018809;28;20286;-79
2022/01/24 09:09:57;;;;;;;;;;;;;;;7.80;61.97;102143.06;5028407;28;19944;-79
2022/01/24 09:12:26;;;;;;;;;;;;;;;7.92;61.88;102150.16;5032650;28;19928;-79
2022/01/24 09:14:53;;;;;;;;;;;;;;;7.96;61.86;102144.97;5017084;28;19922;-80
2022/01/24 09:17:20;;;;;;;;;;;;;;;7.99;61.15;102138.88;5017493;28;19921;-79
2022/01/24 09:19:47;;;;;;;;;;;;;;;8.00;61.05;102131.38;5019519;28;19925;-81
2022/01/24 09:22:14;;;;;;;;;;;;;;;8.02;61.22;102131.97;5017595;28;19929;-81
2022/01/24 09:24:41;;;;;;;;;;;;;;;8.00;61.05;102137.81;5017009;28;19921;-80
2022/01/24 09:27:08;;;;;;;;;;;;;;;7.95;61.14;102137.72;5018077;28;19928;-79
2022/01/24 09:29:36;;;;;;;;;;;;;;;7.85;61.86;102141.19;5017193;28;19922;-79
2022/01/24 09:32:04;;;;;;;;;;;;;;;7.89;62.03;102141.50;5017252;28;19928;-79
2022/01/24 09:34:31;;;;;;;;;;;;;;;7.88;61.48;102135.13;5017212;28;19979;-78
2022/01/24 09:36:58;;;;;;;;;;;;;;;7.79;62.13;102146.91;5017700;28;19921;-81
2022/01/24 09:39:27;;;;;;;;;;;;;;;7.89;61.65;102147.88;5024025;28;19922;-79
2022/01/24 09:41:54;;;;;;;;;;;;;;;8.00;61.21;102154.47;5017281;28;19928;-80
2022/01/24 09:44:22;;;;;;;;;;;;;;;7.95;61.41;102151.59;5032129;28;20307;-79
2022/01/24 09:46:50;;;;;;;;;;;;;;;8.08;60.97;102151.25;5016991;28;19929;-79
2022/01/24 09:49:17;;;;;;;;;;;;;;;8.17;61.08;102148.00;5017219;28;20379;-79
2022/01/24 09:51:44;;;;;;;;;;;;;;;8.18;61.02;102139.41;5017583;28;19925;-79
2022/01/24 09:54:13;;;;;;;;;;;;;;;8.20;60.41;102142.78;5026335;28;19921;-78
2022/01/24 09:56:40;;;;;;;;;;;;;;;8.15;60.78;102137.16;5022567;28;19921;-78
2022/01/24 09:59:07;;;;;;;;;;;;;;;8.23;61.15;102141.41;5016996;28;19921;-79
2022/01/24 10:01:34;;;;;;;;;;;;;;;8.33;60.44;102138.78;5017312;28;19928;-79
2022/01/24 10:04:06;;;;;;;;;;;;;;;8.18;61.15;102130.25;5018271;28;20385;-79
2022/01/24 10:06:48;;;;;;;;;;;;;;;8.32;59.98;102134.34;5013256;28;20275;-79
2022/01/24 10:09:15;;;;;;;;;;;;;;;8.04;60.97;102141.75;5017070;28;19951;-81
2022/01/24 10:12:01;;;;;;;;;;;;;;;8.13;60.67;102142.97;5016215;28;19922;-80
2022/01/24 10:17:19;;;;;;;;;;;;;;;8.02;60.50;102143.94;5017076;28;19922;-81
2022/01/24 10:19:48;;;;;;;;;;;;;;;7.97;60.94;102157.72;5029962;28;19921;-82
2022/01/24 10:22:15;;;;;;;;;;;;;;;7.88;60.88;102151.78;5024012;28;19921;-81
2022/01/24 10:24:44;;;;;;;;;;;;;;;7.58;61.58;102148.53;5015038;28;19921;-80
2022/01/24 10:27:13;;;;;;;;;;;;;;;7.78;61.19;102150.78;5015845;28;19922;-80
2022/01/24 10:29:47;;;;;;;;;;;;;;;7.49;61.60;102160.03;5015551;28;19921;-81
2022/01/24 10:32:44;;;;;;;;;;;;;;;7.73;61.62;102149.63;5015760;28;20302;-82
2022/01/24 10:35:30;;;;;;;;;;;;;;;7.50;61.72;102147.88;4977084;28;20047;-80
2022/01/24 10:38:15;;;;;;;;;;;;;;;7.95;61.22;102148.81;5015707;28;20394;-80
2022/01/24 10:40:50;;;;;;;;;;;;;;;8.13;60.36;102142.13;5017559;28;19925;-80
2022/01/24 10:43:22;;;;;;;;;;;;;;;8.02;60.14;102149.50;5018190;28;19921;-83
2022/01/24 10:45:50;;;;;;;;;;;;;;;7.77;60.76;102143.53;5017290;28;19921;-83
2022/01/24 10:48:21;;;;;;;;;;;;;;;7.77;61.40;102138.00;5017012;28;19967;-83
2022/01/24 10:50:49;;;;;;;;;;;;;;;8.02;60.21;102146.72;5016154;28;19944;-81
2022/01/24 10:53:16;;;;;;;;;;;;;;;8.10;60.71;102139.84;5015164;28;20024;-81
2022/01/24 10:55:45;;;;;;;;;;;;;;;7.95;60.35;102140.50;5014597;28;19929;-80
2022/01/24 10:58:16;;;;;;;;;;;;;;;7.90;60.39;102132.94;5015562;28;19941;-81
2022/01/24 11:00:43;;;;;;;;;;;;;;;7.76;60.60;102125.25;5015784;28;19948;-81
2022/01/24 11:03:16;;;;;;;;;;;;;;;7.78;60.76;102128.59;5016731;28;19921;-80
2022/01/24 11:05:44;;;;;;;;;;;;;;;7.91;60.46;102122.69;5015040;28;19933;-81
2022/01/24 11:08:12;;;;;;;;;;;;;;;8.01;60.09;102113.66;5016064;28;19921;-79
2022/01/24 11:10:41;;;;;;;;;;;;;;;8.13;59.64;102109.66;5015379;28;19921;-81
2022/01/24 11:13:09;;;;;;;;;;;;;;;8.23;59.90;102108.09;5015222;28;20291;-84
2022/01/24 11:15:38;;;;;;;;;;;;;;;8.25;59.71;102108.69;5015542;28;19928;-81
2022/01/24 11:18:06;;;;;;;;;;;;;;;8.22;59.95;102112.81;5012838;28;19921;-80
2022/01/24 11:20:35;;;;;;;;;;;;;;;8.06;59.65;102111.81;5015582;28;20394;-81
2022/01/24 11:23:04;;;;;;;;;;;;;;;8.13;60.20;102094.97;5014965;28;19922;-82
2022/01/24 11:25:34;;;;;;;;;;;;;;;8.31;59.35;102091.81;5015966;28;19925;-81
2022/01/24 11:28:01;;;;;;;;;;;;;;;8.41;59.39;102087.53;5012609;28;19933;-82
2022/01/24 11:30:31;;;;;;;;;;;;;;;8.12;59.60;102085.75;5016574;28;19928;-82
2022/01/24 11:33:01;;;;;;;;;;;;;;;7.88;60.23;102087.97;5015340;28;19952;-82
2022/01/24 11:35:30;;;;;;;;;;;;;;;8.18;59.93;102083.06;5018230;28;19929;-82
2022/01/24 11:37:58;;;;;;;;;;;;;;;8.01;59.71;102089.53;5016352;28;19922;-82
2022/01/24 11:40:44;;;;;;;;;;;;;;;7.95;60.64;102093.31;5011830;28;19909;-82
2022/01/24 11:43:26;;;;;;;;;;;;;;;8.11;60.23;102094.38;5017692;28;19921;-82
2022/01/24 11:46:01;;;;;;;;;;;;;;;8.01;60.42;102088.69;5018919;28;19941;-82
2022/01/24 11:48:29;;;;;;;;;;;;;;;7.86;60.30;102086.56;5019897;28;19928;-83
2022/01/24 11:50:58;;;;;;;;;;;;;;;7.99;60.28;102094.50;5018505;28;19921;-82
2022/01/24 11:53:27;;;;;;;;;;;;;;;8.14;60.73;102086.34;5016887;28;20295;-82
2022/01/24 11:55:55;;;;;;;;;;;;;;;8.36;60.13;102087.44;5014548;28;20662;-82
2022/01/24 11:58:24;;;;;;;;;;;;;;;8.53;59.55;102080.75;5020115;28;19932;-82
2022/01/24 12:00:57;;;;;;;;;;;;;;;8.61;58.49;102084.13;5020945;28;19928;-82
2022/01/24 12:03:27;;;;;;;;;;;;;;;8.41;58.62;102080.03;5024673;28;19933;-81
2022/01/24 12:05:56;;;;;;;;;;;;;;;8.61;58.62;102079.44;5016896;28;19933;-82
2022/01/24 12:08:31;;;;;;;;;;;;;;;8.71;59.06;102076.78;5017607;28;19928;-83
2022/01/24 12:11:12;;;;;;;;;;;;;;;8.18;59.98;102066.41;5017642;28;19932;-79
2022/01/24 12:13:44;;;;;;;;;;;;;;;8.49;59.46;102074.03;5007562;28;19925;-79
2022/01/24 12:16:14;;;;;;;;;;;;;;;8.62;58.85;102066.38;5018613;28;19921;-78
2022/01/24 12:18:48;;;;;;;;;;;;;;;8.58;58.58;102065.22;5015540;28;19937;-79
2022/01/24 12:21:18;;;;;;;;;;;;;;;8.62;58.37;102075.56;5017871;28;20298;-79
2022/01/24 12:23:46;;;;;;;;;;;;;;;8.47;59.55;102067.91;5017264;28;19957;-79
2022/01/24 12:26:29;;;;;;;;;;;;;;;8.25;59.32;102061.50;5018396;28;19933;-78
2022/01/24 12:28:59;;;;;;;;;;;;;;;7.96;60.73;102070.03;5024858;28;19928;-80
2022/01/24 12:31:30;;;;;;;;;;;;;;;8.11;59.53;102066.63;5036976;28;19925;-80
2022/01/24 12:34:00;;;;;;;;;;;;;;;8.27;59.22;102062.94;5027246;28;20404;-79
2022/01/24 12:36:51;;;;;;;;;;;;;;;8.43;59.15;102058.41;5032162;28;19925;-79
2022/01/24 12:39:23;;;;;;;;;;;;;;;8.13;60.52;102064.44;5021252;28;20008;-81
2022/01/24 12:41:54;;;;;;;;;;;;;;;8.06;60.81;102072.09;5030820;28;20027;-81
2022/01/24 12:47:16;;;;;;;;;;;;;;;8.33;59.88;102063.81;4979884;28;19921;-81
2022/01/24 12:49:44;;;;;;;;;;;;;;;8.42;60.16;102067.00;5016380;28;19921;-80
2022/01/24 12:52:12;;;;;;;;;;;;;;;8.28;59.96;102072.94;5018508;28;19921;-81
2022/01/24 12:54:40;;;;;;;;;;;;;;;8.20;60.32;102070.59;5017115;28;19921;-81
2022/01/24 12:57:08;;;;;;;;;;;;;;;8.23;60.06;102064.56;5018527;28;19921;-80
2022/01/24 12:59:37;;;;;;;;;;;;;;;8.17;60.48;102060.03;5017742;28;19921;-80
2022/01/24 13:02:05;;;;;;;;;;;;;;;8.17;60.30;102054.50;5017049;28;20030;-78
2022/01/24 13:04:34;;;;;;;;;;;;;;;8.20;60.15;102050.34;5017649;28;19921;-80
2022/01/24 13:07:01;;;;;;;;;;;;;;;8.19;60.47;102052.28;5017784;28;19921;-80
2022/01/24 13:09:28;;;;;;;;;;;;;;;8.12;60.27;102049.69;5021006;28;19921;-79
2022/01/24 13:11:57;;;;;;;;;;;;;;;8.28;60.37;102041.56;5015524;28;19930;-79
2022/01/24 13:14:29;;;;;;;;;;;;;;;8.40;59.82;102036.69;5018568;28;19925;-79
2022/01/24 13:22:38;;;;;;;;;;;;;;;8.23;60.09;102041.47;5020568;28;19925;-81
2022/01/24 13:25:07;;;;;;;;;;;;;;;8.24;60.19;102048.72;5018279;28;19925;-81
2022/01/24 13:27:34;;;;;;;;;;;;;;;8.11;60.22;102045.25;5020033;28;19921;-83
2022/01/24 13:30:02;;;;;;;;;;;;;;;8.29;59.65;102046.00;5020109;28;19936;-80
2022/01/24 13:32:42;;;;;;;;;;;;;;;8.31;60.02;102050.19;5019995;28;20306;-79
2022/01/24 13:35:15;;;;;;;;;;;;;;;8.28;59.12;102053.50;5001491;28;19929;-80
2022/01/24 13:37:45;;;;;;;;;;;;;;;8.20;59.56;102047.56;5016485;28;20370;-80
2022/01/24 13:40:12;;;;;;;;;;;;;;;8.24;59.64;102055.09;5016351;28;19921;-81
2022/01/24 13:42:40;;;;;;;;;;;;;;;8.29;60.03;102055.19;5018129;28;19928;-78
2022/01/24 13:45:08;;;;;;;;;;;;;;;8.38;59.58;102055.56;5018202;28;19929;-78
2022/01/24 13:47:38;;;;;;;;;;;;;;;8.48;59.79;102054.84;5017149;28;19925;-79
2022/01/24 13:50:08;;;;;;;;;;;;;;;8.57;59.16;102050.50;5012702;28;19925;-79
2022/01/24 13:52:36;;;;;;;;;;;;;;;8.56;58.73;102046.03;5015122;28;21470;-80
2022/01/24 13:55:24;;;;;;;;;;;;;;;8.61;59.44;102050.81;5013664;28;19928;-80
2022/01/24 13:57:52;;;;;;;;;;;;;;;8.62;58.94;102038.59;5013506;28;20394;-80
2022/01/24 14:00:22;;;;;;;;;;;;;;;8.58;58.77;102037.47;5014515;28;20239;-80
2022/01/24 14:02:50;;;;;;;;;;;;;;;8.73;58.87;102041.22;5016594;28;19925;-79
2022/01/24 14:05:17;;;;;;;;;;;;;;;8.81;58.51;102045.44;5014792;28;20301;-79
2022/01/24 14:07:46;;;;;;;;;;;;;;;8.77;58.36;102040.69;5014598;28;19922;-79
2022/01/24 14:10:15;;;;;;;;;;;;;;;8.77;58.50;102035.97;5018137;28;19921;-79
2022/01/24 14:12:49;;;;;;;;;;;;;;;8.76;58.71;102034.31;5017034;28;19921;-79
2022/01/24 14:15:22;;;;;;;;;;;;;;;8.79;58.58;102033.75;5015938;28;19932;-79
2022/01/24 14:18:19;;;;;;;;;;;;;;;8.85;58.13;102029.09;5016249;28;19929;-80
2022/01/24 14:20:47;;;;;;;;;;;;;;;8.85;58.12;102027.16;5015808;28;20286;-78